createdAt,value
2022-07-26T00:01:24.205Z,20.64
2022-07-26T00:06:31.321Z,20.32
2022-07-26T00:11:34.429Z,21.45
2022-07-26T00:16:38.136Z,21.85
2022-07-26T00:21:41.463Z,20.92
2022-07-26T00:26:44.777Z,20.42
2022-07-26T00:31:47.621Z,21.30
2022-07-26T00:36:50.642Z,21.71
2022-07-26T00:41:53.596Z,20.88
2022-07-26T00:46:56.395Z,20.45
2022-07-26T00:51:59.403Z,20.57
2022-07-26T00:57:02.515Z,21.80
2022-07-26T01:02:06.751Z,21.09
2022-07-26T01:07:14.818Z,20.51
2022-07-26T01:12:18.405Z,20.56
2022-07-26T01:17:20.993Z,21.73
2022-07-26T01:22:24.033Z,21.08
2022-07-26T01:27:31.996Z,20.53
2022-07-26T01:32:37.052Z,20.85
2022-07-26T01:37:41.922Z,21.72
2022-07-26T01:42:44.542Z,20.97
2022-07-26T01:47:50.256Z,20.51
2022-07-26T01:52:53.194Z,20.46
2022-07-26T01:57:55.800Z,21.76
2022-07-26T02:02:58.510Z,21.24
2022-07-26T02:08:01.312Z,20.62
2022-07-26T02:13:04.330Z,21.04
2022-07-26T02:18:10.480Z,21.69
2022-07-26T02:23:13.095Z,20.91
2022-07-26T02:28:16.932Z,20.53
2022-07-26T02:33:20.107Z,21.63
2022-07-26T02:38:22.727Z,21.55
2022-07-26T02:43:27.882Z,20.83
2022-07-26T02:48:30.944Z,20.88
2022-07-26T02:53:33.817Z,21.71
2022-07-26T02:58:37.280Z,21.10
2022-07-26T03:03:40.029Z,20.69
2022-07-26T03:08:42.618Z,21.75
2022-07-26T03:13:45.484Z,21.65
2022-07-26T03:18:48.110Z,21.05
2022-07-26T03:23:50.725Z,20.72
2022-07-26T03:28:53.476Z,20.52
2022-07-26T03:34:01.318Z,20.84
2022-07-26T03:39:05.666Z,21.83
2022-07-26T03:44:08.448Z,21.22
2022-07-26T03:49:16.406Z,20.85
2022-07-26T03:54:19.820Z,20.65
2022-07-26T03:59:24.184Z,20.53
2022-07-26T04:04:26.839Z,20.47
2022-07-26T04:09:29.450Z,21.13
2022-07-26T04:14:32.150Z,21.93
2022-07-26T04:19:34.752Z,21.52
2022-07-26T04:24:42.427Z,21.39
2022-07-26T04:29:45.002Z,21.41
2022-07-26T04:34:47.611Z,21.55
2022-07-26T04:39:54.812Z,21.76
2022-07-26T04:44:57.805Z,21.96
2022-07-26T04:50:00.574Z,22.12
2022-07-26T04:55:03.417Z,22.34
2022-07-26T05:00:21.186Z,22.53
2022-07-26T05:05:26.683Z,22.80
2022-07-26T05:10:31.729Z,23.11
2022-07-26T05:15:35.848Z,23.54
2022-07-26T05:20:38.819Z,24.01
2022-07-26T05:25:41.773Z,24.45
2022-07-26T05:30:44.827Z,24.83
2022-07-26T05:35:47.542Z,25.26
2022-07-26T05:40:50.841Z,25.76
2022-07-26T05:45:54.485Z,26.21
2022-07-26T05:51:00.804Z,26.51
2022-07-26T05:56:04.206Z,26.98
2022-07-26T06:01:06.917Z,27.63
2022-07-26T06:06:09.720Z,28.17
2022-07-26T06:11:12.337Z,28.74
2022-07-26T06:16:15.082Z,28.90
2022-07-26T06:21:17.861Z,28.85
2022-07-26T06:26:20.701Z,28.71
2022-07-26T06:31:23.347Z,28.15
2022-07-26T06:36:30.285Z,27.35
2022-07-26T06:41:33.557Z,26.73
2022-07-26T06:46:36.769Z,26.43
2022-07-26T06:51:39.471Z,26.01
2022-07-26T06:56:42.104Z,25.82
2022-07-26T07:01:55.672Z,25.72
2022-07-26T07:07:05.705Z,25.62
2022-07-26T07:12:10.297Z,25.43
2022-07-26T07:17:18.472Z,25.42
2022-07-26T07:22:22.806Z,25.61
2022-07-26T07:27:25.400Z,25.97
2022-07-26T07:32:30.120Z,26.28
2022-07-26T07:37:52.336Z,26.40
2022-07-26T07:42:56.676Z,26.47
2022-07-26T07:47:59.760Z,26.65
2022-07-26T07:53:02.438Z,26.79
2022-07-26T07:58:05.230Z,26.71
2022-07-26T08:03:09.090Z,26.50
2022-07-26T08:08:11.778Z,26.12
2022-07-26T08:13:16.867Z,25.73
2022-07-26T08:18:24.318Z,25.45
2022-07-26T08:23:27.534Z,25.18
2022-07-26T08:28:47.003Z,24.91
2022-07-26T08:33:50.750Z,24.66
2022-07-26T08:38:53.374Z,24.48
2022-07-26T08:44:04.310Z,24.31
2022-07-26T08:49:08.285Z,24.21
2022-07-26T08:54:12.739Z,23.99
2022-07-26T08:59:20.912Z,23.74
2022-07-26T09:04:32.284Z,23.68
2022-07-26T09:09:39.777Z,23.80
2022-07-26T09:14:42.665Z,23.85
2022-07-26T09:19:45.967Z,24.29
2022-07-26T09:24:48.763Z,24.76
2022-07-26T09:29:53.404Z,25.04
2022-07-26T09:35:24.091Z,24.87
2022-07-26T09:40:34.742Z,24.49
2022-07-26T09:45:37.638Z,24.39
2022-07-26T09:50:48.118Z,24.47
2022-07-26T09:55:51.464Z,24.38
2022-07-26T10:01:00.466Z,23.98
2022-07-26T10:06:05.501Z,23.55
2022-07-26T10:11:09.930Z,24.59
2022-07-26T10:16:32.499Z,24.89
2022-07-26T10:21:35.376Z,24.18
2022-07-26T10:26:38.729Z,23.98
2022-07-26T10:31:41.599Z,25.05
2022-07-26T10:36:44.214Z,25.21
2022-07-26T10:41:56.979Z,24.29
2022-07-26T10:46:59.719Z,24.45
2022-07-26T10:52:08.888Z,25.52
2022-07-26T10:57:11.496Z,24.51
2022-07-26T11:02:21.327Z,23.68
2022-07-26T11:07:24.081Z,24.20
2022-07-26T11:12:27.730Z,25.26
2022-07-26T11:17:30.880Z,24.68
2022-07-26T11:22:34.498Z,24.01
2022-07-26T11:27:37.091Z,24.82
2022-07-26T11:32:39.766Z,25.25
2022-07-26T11:37:52.067Z,24.39
2022-07-26T11:42:54.706Z,23.97
2022-07-26T11:47:58.840Z,24.42
2022-07-26T11:53:01.473Z,25.24
2022-07-26T11:58:05.755Z,24.60
2022-07-26T12:03:08.370Z,24.22
2022-07-26T12:08:11.174Z,23.97
2022-07-26T12:13:15.274Z,23.88
2022-07-26T12:18:24.740Z,23.76
2022-07-26T12:23:27.378Z,23.80
2022-07-26T12:28:42.317Z,23.83
2022-07-26T12:33:49.015Z,23.75
2022-07-26T12:38:52.646Z,23.67
2022-07-26T12:43:55.294Z,23.36
2022-07-26T12:49:00.411Z,23.16
2022-07-26T12:54:06.485Z,23.02
2022-07-26T12:59:11.010Z,22.99
2022-07-26T13:04:20.375Z,23.00
2022-07-26T13:09:23.113Z,22.91
2022-07-26T13:14:25.998Z,22.84
2022-07-26T13:19:28.920Z,22.83
2022-07-26T13:24:32.708Z,22.97
2022-07-26T13:29:36.633Z,23.09
2022-07-26T13:34:39.206Z,23.18
2022-07-26T13:39:41.791Z,23.12
2022-07-26T13:44:44.350Z,23.08
2022-07-26T13:49:47.041Z,23.07
2022-07-26T13:54:49.705Z,23.03
2022-07-26T13:59:52.270Z,23.01
2022-07-26T14:04:54.835Z,23.00
2022-07-26T14:09:57.557Z,22.95
2022-07-26T14:15:00.174Z,23.00
2022-07-26T14:20:04.162Z,23.19
2022-07-26T14:25:07.561Z,23.24
2022-07-26T14:30:10.711Z,23.25
2022-07-26T14:35:13.860Z,23.17
2022-07-26T14:40:17.376Z,23.16
2022-07-26T14:45:20.189Z,23.21
2022-07-26T14:50:38.411Z,23.41
2022-07-26T14:55:49.849Z,23.59
2022-07-26T15:00:53.108Z,23.73
2022-07-26T15:05:55.978Z,23.78
2022-07-26T15:10:58.710Z,23.76
2022-07-26T15:16:01.727Z,23.89
2022-07-26T15:21:04.437Z,23.93
2022-07-26T15:26:07.341Z,23.91
2022-07-26T15:31:11.064Z,23.81
2022-07-26T15:36:13.634Z,23.76
2022-07-26T15:41:16.368Z,23.70
2022-07-26T15:46:19.823Z,23.59
2022-07-26T15:51:24.914Z,23.47
2022-07-26T15:56:27.812Z,23.54
2022-07-26T16:01:30.467Z,23.52
2022-07-26T16:06:33.763Z,23.49
2022-07-26T16:11:36.436Z,23.48
2022-07-26T16:16:39.103Z,23.48
2022-07-26T16:21:41.805Z,23.48
2022-07-26T16:26:44.928Z,23.45
2022-07-26T16:31:50.350Z,23.37
2022-07-26T16:36:53.248Z,23.37
2022-07-26T16:41:56.030Z,23.37
2022-07-26T16:46:58.808Z,23.33
2022-07-26T16:52:01.438Z,23.21
2022-07-26T16:57:04.253Z,23.13
2022-07-26T17:02:09.568Z,23.17
2022-07-26T17:07:25.073Z,23.15
2022-07-26T17:12:28.402Z,23.05
2022-07-26T17:17:31.019Z,22.96
2022-07-26T17:22:33.666Z,23.34
2022-07-26T17:27:36.288Z,24.25
2022-07-26T17:32:39.251Z,23.68
2022-07-26T17:37:41.930Z,23.17
2022-07-26T17:42:45.839Z,22.84
2022-07-26T17:47:48.492Z,23.19
2022-07-26T17:52:51.682Z,24.00
2022-07-26T17:57:54.263Z,23.43
2022-07-26T18:02:57.228Z,22.93
2022-07-26T18:08:00.768Z,22.57
2022-07-26T18:13:03.427Z,22.40
2022-07-26T18:18:07.897Z,23.40
2022-07-26T18:23:10.682Z,23.83
2022-07-26T18:28:13.321Z,23.01
2022-07-26T18:33:16.346Z,22.46
2022-07-26T18:38:18.936Z,22.11
2022-07-26T18:43:21.606Z,22.87
2022-07-26T18:48:24.185Z,23.94
2022-07-26T18:53:26.843Z,24.03
2022-07-26T18:58:29.580Z,23.02
2022-07-26T19:03:34.856Z,22.33
2022-07-26T19:08:37.709Z,22.08
2022-07-26T19:13:41.849Z,23.09
2022-07-26T19:18:48.950Z,23.72
2022-07-26T19:23:52.738Z,22.96
2022-07-26T19:28:55.811Z,22.10
2022-07-26T19:33:58.389Z,22.59
2022-07-26T19:39:01.422Z,23.49
2022-07-26T19:44:04.289Z,23.50
2022-07-26T19:49:10.362Z,22.42
2022-07-26T19:54:13.290Z,22.25
2022-07-26T19:59:20.918Z,23.03
2022-07-26T20:04:25.830Z,23.32
2022-07-26T20:09:29.829Z,22.32
2022-07-26T20:14:32.501Z,22.10
2022-07-26T20:19:35.120Z,22.62
2022-07-26T20:24:38.414Z,22.82
2022-07-26T20:29:41.034Z,22.34
2022-07-26T20:34:43.822Z,21.33
2022-07-26T20:39:47.095Z,21.82
2022-07-26T20:44:53.048Z,22.07
2022-07-26T20:50:01.038Z,22.12
2022-07-26T20:55:06.402Z,22.21
2022-07-26T21:00:11.104Z,22.41
2022-07-26T21:05:13.965Z,22.51
2022-07-26T21:10:16.579Z,22.58
2022-07-26T21:15:19.260Z,22.72
2022-07-26T21:20:22.263Z,22.87
2022-07-26T21:25:25.013Z,22.96
2022-07-26T21:30:27.667Z,23.11
2022-07-26T21:35:30.387Z,22.42
2022-07-26T21:40:33.208Z,21.34
2022-07-26T21:45:36.447Z,21.80
2022-07-26T21:50:39.286Z,22.15
2022-07-26T21:55:41.895Z,22.33
2022-07-26T22:00:44.611Z,22.33
2022-07-26T22:05:47.322Z,21.23
2022-07-26T22:10:52.141Z,21.20
2022-07-26T22:15:54.704Z,21.91
2022-07-26T22:20:57.403Z,21.73
2022-07-26T22:26:02.080Z,20.42
2022-07-26T22:31:04.818Z,20.61
2022-07-26T22:36:08.869Z,20.64
2022-07-26T22:41:11.500Z,19.48
2022-07-26T22:46:14.507Z,18.92
2022-07-26T22:51:17.208Z,19.84
2022-07-26T22:56:20.161Z,19.43
2022-07-26T23:01:22.899Z,18.42
2022-07-26T23:06:32.210Z,17.79
2022-07-26T23:11:35.334Z,18.20
2022-07-26T23:16:38.662Z,19.39
2022-07-26T23:21:41.299Z,19.50
2022-07-26T23:26:43.932Z,18.47
2022-07-26T23:31:46.614Z,17.82
2022-07-26T23:36:49.367Z,17.38
2022-07-26T23:41:51.966Z,17.64
2022-07-26T23:46:55.380Z,18.86
2022-07-26T23:51:58.102Z,19.76
2022-07-26T23:57:00.805Z,19.06
